DNPO

Port Harcourt International Airport

Port Harcourt, Nigeria
METAR DNPO 201600Z 20006KT 9999 TS BKN009 FEW020CB 28/24 Q1006 TEMPO 5000 -TSRA
Observed Flight Rules
Oct-20 @ 16:00 UTC (an hour ago) Instrument Flight Rules
Wind Visibility Clouds Conditions
200° at 6 knots 10,000+ meters
  • Broken at 900' AGL
  • Few at 2,000' AGL
  • Thunderstorm
Temperatures Readings
Current 28°C / 82°F
Dewpoint 24°C / 75°F
Humidity 79%
Altimeter 29.7" Hg
Pressure 1006 hPa
Elevation 18
METAR DNPO 201600Z 20006KT 9999 TS BKN009 FEW020CB 28/24 Q1006 TEMPO 5000 -TSRA
Observed Flight Rules
Oct-20 @ 16:00 UTC
(an hour ago)
IFR
Wind Visibility
200° at 6 knots 10,000+ meters
Clouds
  • Broken at 900' AGL
  • Few at 2,000' AGL
Conditions
  • Thunderstorm
Temperature Dewpoint
28°C / 82°F 24°C / 75°F
Humidity Altimeter Pressure
79% 29.7" Hg 1006 hPa